Time;durP1;ratioP1;P1;durP2;ratioP2;P2;SDS_P1;SDS_P2;PMS_P1;PMS_P2;Temp;Humidity;BMP_temperature;BMP_pressure;BME280_temperature;BME280_humidity;BME280_pressure;Samples;Min_cycle;Max_cycle;Signal;HPM_P1;HPM_P2
2022/07/02 00:00:09;;;;;;;3.90;1.15;;;15.00;99.90;;;;;;6744205;88;20324;-79
2022/07/02 00:10:10;;;;;;;2.40;0.95;;;14.80;99.90;;;;;;6701213;88;20176;-79
2022/07/02 00:20:11;;;;;;;2.25;1.30;;;14.70;99.90;;;;;;6694755;88;20594;-81
2022/07/02 00:30:13;;;;;;;2.85;1.30;;;14.50;99.90;;;;;;6660233;89;20178;-80
2022/07/02 00:40:16;;;;;;;2.67;1.00;;;14.40;99.90;;;;;;6665278;89;20220;-79
2022/07/02 00:50:16;;;;;;;3.45;1.10;;;14.40;99.90;;;;;;6695759;89;20278;-79
2022/07/02 01:00:18;;;;;;;5.00;1.08;;;14.30;99.90;;;;;;6712917;88;20935;-80
2022/07/02 01:10:19;;;;;;;2.30;0.90;;;14.20;99.90;;;;;;6714976;88;20198;-80
2022/07/02 01:20:20;;;;;;;1.80;0.93;;;14.10;99.90;;;;;;6718043;88;20226;-80
2022/07/02 01:30:20;;;;;;;2.20;1.08;;;14.00;99.90;;;;;;6739243;88;20189;-79
2022/07/02 01:40:21;;;;;;;2.80;1.00;;;13.80;99.90;;;;;;6746697;88;20272;-80
2022/07/02 01:50:21;;;;;;;4.22;1.20;;;13.50;99.90;;;;;;6761204;88;20551;-79
2022/07/02 02:00:22;;;;;;;2.87;1.15;;;13.50;99.90;;;;;;6763425;88;20226;-80
2022/07/02 02:10:22;;;;;;;2.55;1.05;;;13.60;99.90;;;;;;6765293;88;20217;-80
2022/07/02 02:20:23;;;;;;;1.95;1.00;;;13.60;99.90;;;;;;6762189;88;20738;-80
2022/07/02 02:30:24;;;;;;;220.93;22.98;;;13.50;99.90;;;;;;6722197;88;20210;-80
2022/07/02 02:40:25;;;;;;;7.47;1.40;;;13.30;99.90;;;;;;6708355;89;20221;-80
2022/07/02 02:50:25;;;;;;;2.90;1.20;;;13.50;99.90;;;;;;6709392;89;20275;-80
2022/07/02 03:00:27;;;;;;;604.62;44.22;;;13.30;99.90;;;;;;6735495;88;20624;-79
2022/07/02 03:10:28;;;;;;;194.00;15.48;;;13.20;99.90;;;;;;6753232;88;20197;-80
2022/07/02 03:20:29;;;;;;;1.90;1.30;;;12.90;99.90;;;;;;6744800;88;20165;-79
2022/07/02 03:30:30;;;;;;;12.13;1.83;;;12.90;99.90;;;;;;6711136;88;20896;-79
2022/07/02 03:40:31;;;;;;;5.60;1.12;;;12.90;99.90;;;;;;6697067;89;20170;-79
2022/07/02 03:50:31;;;;;;;1.90;1.00;;;12.80;99.90;;;;;;6679813;89;20177;-80
2022/07/02 04:00:32;;;;;;;2.92;1.30;;;12.80;99.90;;;;;;6701886;88;20185;-80
2022/07/02 04:10:32;;;;;;;3.83;1.20;;;12.90;99.90;;;;;;6698709;89;20160;-80
2022/07/02 04:20:33;;;;;;;1.25;0.50;;;13.00;99.90;;;;;;6677202;89;20177;-81
2022/07/02 04:30:35;;;;;;;2.55;1.12;;;13.00;99.90;;;;;;6677058;89;20208;-80
2022/07/02 04:40:35;;;;;;;1.87;1.12;;;13.10;99.90;;;;;;6676303;89;20164;-80
2022/07/02 05:00:43;;;;;;;5.07;1.15;;;13.40;99.90;;;;;;6710596;88;20177;-78
2022/07/02 05:10:43;;;;;;;3.95;1.35;;;13.70;99.90;;;;;;6731509;88;20208;-78
2022/07/02 05:20:44;;;;;;;3.63;1.30;;;14.00;99.90;;;;;;6734835;88;20173;-78
2022/07/02 05:30:45;;;;;;;3.12;1.40;;;14.20;99.90;;;;;;6735462;88;20609;-79
2022/07/02 05:40:46;;;;;;;3.95;1.20;;;14.30;99.90;;;;;;6735236;88;20201;-79
2022/07/02 05:50:47;;;;;;;3.67;1.50;;;14.50;99.90;;;;;;6719094;88;21037;-80
2022/07/02 06:00:48;;;;;;;2.70;1.45;;;14.90;99.90;;;;;;6717724;88;20282;-79
2022/07/02 06:10:48;;;;;;;4.32;1.17;;;15.30;99.90;;;;;;6729033;88;20229;-80
2022/07/02 06:20:49;;;;;;;4.25;1.48;;;15.90;99.90;;;;;;6714847;88;20646;-79
2022/07/02 06:30:49;;;;;;;2.55;1.25;;;16.50;99.90;;;;;;6721133;88;20310;-79
2022/07/02 06:40:50;;;;;;;4.87;1.10;;;17.00;99.90;;;;;;6727028;88;20875;-79
2022/07/02 06:50:50;;;;;;;2.15;1.00;;;17.50;99.90;;;;;;6722539;88;21072;-79
2022/07/02 07:00:51;;;;;;;3.47;1.08;;;18.00;99.90;;;;;;6723813;88;20295;-79
2022/07/02 07:10:51;;;;;;;3.17;0.95;;;18.50;99.90;;;;;;6721791;88;20396;-77
2022/07/02 07:20:53;;;;;;;2.85;1.00;;;19.60;99.90;;;;;;6730819;88;20728;-81
2022/07/02 07:30:54;;;;;;;3.15;0.90;;;20.20;99.90;;;;;;6741974;88;20789;-81
2022/07/02 07:40:55;;;;;;;2.05;0.88;;;20.20;99.90;;;;;;6737489;88;20318;-82
2022/07/02 07:50:55;;;;;;;2.25;0.77;;;20.70;99.90;;;;;;6733787;88;20193;-80
2022/07/02 08:00:56;;;;;;;2.80;0.60;;;21.50;99.90;;;;;;6731840;88;20202;-80
2022/07/02 08:10:57;;;;;;;1.37;0.70;;;22.20;99.90;;;;;;6730252;88;20188;-80
2022/07/02 08:20:57;;;;;;;3.10;0.70;;;22.20;97.50;;;;;;6725965;88;20507;-80
2022/07/02 08:30:58;;;;;;;1.67;0.73;;;23.10;96.50;;;;;;6728810;88;20213;-81
2022/07/02 08:41:00;;;;;;;1.52;0.60;;;22.90;95.70;;;;;;6730667;88;20210;-81
2022/07/02 08:51:00;;;;;;;1.42;0.60;;;23.90;93.00;;;;;;6731498;88;20205;-80
2022/07/02 09:01:02;;;;;;;1.77;0.50;;;23.60;91.90;;;;;;6725184;88;20185;-80
2022/07/02 09:11:03;;;;;;;4.65;0.80;;;24.20;90.10;;;;;;6731035;88;20202;-80
2022/07/02 09:21:04;;;;;;;1.73;0.77;;;24.50;89.30;;;;;;6713856;88;20614;-80
2022/07/02 09:31:06;;;;;;;1.10;0.45;;;24.80;86.70;;;;;;6727719;88;20185;-80
2022/07/02 09:41:14;;;;;;;1.77;0.70;;;24.70;88.40;;;;;;6724509;88;20318;-81
2022/07/02 09:51:15;;;;;;;2.33;0.70;;;24.50;84.70;;;;;;6722187;88;20207;-80
2022/07/02 10:01:23;;;;;;;2.15;0.75;;;24.60;85.30;;;;;;6726966;88;20193;-80
2022/07/02 10:11:25;;;;;;;1.85;0.73;;;25.10;84.90;;;;;;6738172;88;20189;-80
2022/07/02 10:21:27;;;;;;;4.15;0.70;;;26.40;84.40;;;;;;6744387;88;20255;-81
2022/07/02 10:31:41;;;;;;;2.77;0.63;;;25.60;81.20;;;;;;6740565;88;20170;-80
2022/07/02 10:41:42;;;;;;;1.98;0.70;;;27.60;78.20;;;;;;6730249;88;20228;-80
2022/07/02 11:01:46;;;;;;;1.80;0.70;;;27.80;76.60;;;;;;6722495;88;20256;-81
2022/07/02 11:11:53;;;;;;;2.60;0.70;;;27.30;78.80;;;;;;6718726;88;20213;-82
2022/07/02 11:21:58;;;;;;;1.10;0.70;;;30.50;75.70;;;;;;6721776;88;20674;-81
2022/07/02 11:31:59;;;;;;;1.55;0.52;;;28.20;72.40;;;;;;6723847;88;20229;-82
2022/07/02 11:42:00;;;;;;;2.22;0.70;;;28.10;76.70;;;;;;6722355;88;20817;-81
2022/07/02 11:52:01;;;;;;;3.33;1.48;;;28.60;72.70;;;;;;6725765;88;20292;-82
2022/07/02 12:02:01;;;;;;;2.45;0.70;;;29.10;73.30;;;;;;6752742;88;20191;-82
2022/07/02 12:12:03;;;;;;;2.12;0.65;;;30.60;69.30;;;;;;6753193;88;20860;-82
2022/07/02 12:22:05;;;;;;;1.87;0.60;;;29.60;68.00;;;;;;6737815;88;20209;-82
2022/07/02 12:32:11;;;;;;;2.40;0.80;;;29.50;68.60;;;;;;6737518;88;20243;-82
2022/07/02 12:42:16;;;;;;;2.58;0.70;;;30.20;68.60;;;;;;6734233;88;20201;-81
2022/07/02 12:52:17;;;;;;;1.75;0.80;;;30.30;66.50;;;;;;6739701;88;20738;-81
2022/07/02 13:02:22;;;;;;;2.00;0.90;;;29.10;68.40;;;;;;6736995;88;20196;-82
2022/07/02 13:12:23;;;;;;;2.62;0.80;;;30.20;68.40;;;;;;6737059;88;20372;-80
2022/07/02 13:32:27;;;;;;;1.33;0.60;;;29.90;66.00;;;;;;6714781;88;20629;-79
2022/07/02 13:43:09;;;;;;;2.15;0.75;;;29.50;65.60;;;;;;6732391;77;20289;-79
2022/07/02 13:53:10;;;;;;;1.65;0.62;;;28.50;65.80;;;;;;6681871;89;20602;-80
2022/07/02 14:03:10;;;;;;;1.10;0.60;;;29.30;65.70;;;;;;6678194;89;20195;-80
2022/07/02 14:13:11;;;;;;;2.00;0.70;;;30.10;63.60;;;;;;6678677;89;20203;-82
2022/07/02 14:23:11;;;;;;;2.80;1.40;;;30.00;63.30;;;;;;6678271;89;20202;-80
2022/07/02 14:33:13;;;;;;;2.75;0.70;;;29.90;63.00;;;;;;6675685;89;20203;-79
2022/07/02 14:43:14;;;;;;;2.63;0.80;;;29.50;61.80;;;;;;6674845;89;20191;-80
2022/07/02 14:53:14;;;;;;;3.03;0.70;;;30.20;62.10;;;;;;6673351;89;20211;-80
2022/07/02 15:03:15;;;;;;;2.05;0.60;;;30.50;61.50;;;;;;6672290;88;20201;-79
2022/07/02 15:13:15;;;;;;;1.05;0.60;;;30.00;61.70;;;;;;6660209;89;20199;-80
2022/07/02 15:23:20;;;;;;;1.92;0.70;;;30.40;61.60;;;;;;6666013;89;20253;-79
2022/07/02 15:33:24;;;;;;;3.95;0.73;;;30.10;61.60;;;;;;6657777;89;20655;-79
2022/07/02 15:43:24;;;;;;;1.23;0.60;;;30.30;60.50;;;;;;6659165;89;20247;-80
2022/07/02 15:53:28;;;;;;;1.23;0.73;;;29.60;61.30;;;;;;6659395;89;20232;-80
2022/07/02 16:03:33;;;;;;;2.05;0.70;;;29.80;61.30;;;;;;6662821;89;20230;-81
2022/07/02 16:13:34;;;;;;;1.45;0.70;;;29.80;61.90;;;;;;6675375;89;20325;-82
2022/07/02 16:23:35;;;;;;;3.47;0.73;;;30.10;62.30;;;;;;6677820;89;20284;-79
2022/07/02 16:33:59;;;;;;;4.75;0.98;;;29.80;62.10;;;;;;6665573;89;20205;-79
2022/07/02 16:44:03;;;;;;;3.47;0.60;;;28.80;63.20;;;;;;6658001;89;20249;-78
2022/07/02 17:05:06;;;;;;;2.15;0.90;;;28.90;62.60;;;;;;6753334;88;20194;-81
2022/07/02 17:15:08;;;;;;;1.30;0.90;;;28.70;64.50;;;;;;6748334;88;20691;-80
2022/07/02 17:25:12;;;;;;;2.78;0.90;;;29.00;64.10;;;;;;6752294;88;20184;-81
2022/07/02 17:35:12;;;;;;;1.80;1.00;;;29.10;65.40;;;;;;6748591;88;20239;-81
2022/07/02 17:45:13;;;;;;;3.07;1.03;;;30.20;63.50;;;;;;6746862;88;20200;-80
2022/07/02 17:55:14;;;;;;;1.60;0.90;;;29.40;63.20;;;;;;6756245;88;20538;-81
2022/07/02 18:05:14;;;;;;;1.83;0.90;;;28.70;64.70;;;;;;6749480;88;20200;-80
2022/07/02 18:15:15;;;;;;;2.03;1.08;;;28.40;65.10;;;;;;6751341;88;20210;-81
2022/07/02 18:25:16;;;;;;;2.35;0.90;;;29.60;64.50;;;;;;6751602;88;20247;-81
2022/07/02 18:35:16;;;;;;;1.70;0.88;;;29.40;64.30;;;;;;6749862;88;20256;-81
2022/07/02 18:45:18;;;;;;;2.63;1.47;;;28.70;65.10;;;;;;6749929;88;20200;-81
2022/07/02 18:55:18;;;;;;;3.90;1.90;;;27.20;67.10;;;;;;6748934;88;20715;-81
2022/07/02 19:05:19;;;;;;;2.10;1.40;;;26.60;68.70;;;;;;6750114;88;20204;-81
2022/07/02 19:15:20;;;;;;;3.33;1.90;;;26.30;69.50;;;;;;6751313;88;20510;-80
2022/07/02 19:25:20;;;;;;;4.10;2.00;;;26.00;71.60;;;;;;6750767;88;20569;-80
2022/07/02 19:35:21;;;;;;;5.82;3.33;;;25.70;72.50;;;;;;6742014;88;20236;-79
2022/07/02 19:45:22;;;;;;;2.08;1.42;;;25.30;73.60;;;;;;6750953;88;20239;-81
2022/07/02 19:55:23;;;;;;;2.80;1.92;;;25.10;74.40;;;;;;6749819;88;20281;-81
2022/07/02 20:05:24;;;;;;;3.25;1.52;;;24.50;76.10;;;;;;6745723;88;20208;-81
2022/07/02 20:15:25;;;;;;;3.83;2.10;;;24.20;76.90;;;;;;6749414;88;20699;-81
2022/07/02 20:25:26;;;;;;;4.43;2.25;;;23.90;77.90;;;;;;6749328;88;20194;-80
2022/07/02 20:35:28;;;;;;;5.18;1.80;;;23.70;78.40;;;;;;6745634;88;20178;-79
2022/07/02 20:45:29;;;;;;;2.75;1.50;;;23.40;79.10;;;;;;6726050;88;20298;-79
2022/07/02 20:55:30;;;;;;;1.93;1.10;;;22.70;82.20;;;;;;6727392;88;20243;-80
2022/07/02 21:05:30;;;;;;;2.40;1.10;;;22.60;82.90;;;;;;6737486;88;20519;-80
2022/07/02 21:15:31;;;;;;;2.83;1.10;;;22.70;82.80;;;;;;6726524;88;20201;-79
2022/07/02 21:25:31;;;;;;;3.20;1.27;;;22.60;85.00;;;;;;6732662;88;20288;-79
2022/07/02 21:35:33;;;;;;;4.43;1.12;;;22.50;86.70;;;;;;6741463;88;20499;-78
2022/07/02 21:45:33;;;;;;;4.50;1.02;;;22.10;89.10;;;;;;6739287;88;20193;-79
2022/07/02 21:55:34;;;;;;;4.17;1.10;;;21.80;90.50;;;;;;6741980;88;20181;-79
2022/07/02 22:05:39;;;;;;;2.92;0.90;;;21.60;91.50;;;;;;6743333;86;20672;-78
2022/07/02 22:15:40;;;;;;;1.80;1.10;;;21.60;92.20;;;;;;6736469;88;20250;-78
2022/07/02 22:25:41;;;;;;;4.40;1.15;;;21.40;93.30;;;;;;6741224;88;21074;-79
2022/07/02 22:35:52;;;;;;;2.45;0.90;;;21.00;95.30;;;;;;6737238;88;20303;-79
2022/07/02 22:45:53;;;;;;;2.90;0.90;;;20.90;96.50;;;;;;6739506;88;20185;-79
2022/07/02 23:06:56;;;;;;;5.03;1.08;;;20.70;98.90;;;;;;6727264;88;20186;-76
2022/07/02 23:16:57;;;;;;;2.28;1.20;;;20.50;99.90;;;;;;6715639;88;20228;-77
2022/07/02 23:26:57;;;;;;;3.15;1.20;;;20.60;99.90;;;;;;6714022;88;20355;-77
2022/07/02 23:36:58;;;;;;;2.85;1.00;;;20.40;99.90;;;;;;6713714;88;20269;-78
2022/07/02 23:46:59;;;;;;;2.72;1.00;;;20.20;99.90;;;;;;6713476;88;20222;-77
2022/07/02 23:57:00;;;;;;;2.43;1.07;;;20.20;99.90;;;;;;6715955;88;20242;-77
